createdAt,value
2022-10-23T00:01:55.663Z,7.80
2022-10-23T00:04:23.097Z,7.70
2022-10-23T00:06:50.152Z,7.70
2022-10-23T00:09:18.851Z,7.70
2022-10-23T00:11:48.084Z,7.70
2022-10-23T00:14:15.678Z,7.70
2022-10-23T00:16:42.462Z,7.70
2022-10-23T00:19:09.288Z,7.60
2022-10-23T00:21:36.239Z,7.60
2022-10-23T00:24:03.203Z,7.50
2022-10-23T00:26:30.034Z,7.50
2022-10-23T00:28:57.240Z,7.60
2022-10-23T00:31:24.959Z,7.50
2022-10-23T00:33:51.902Z,7.50
2022-10-23T00:36:19.733Z,7.50
2022-10-23T00:38:47.211Z,7.50
2022-10-23T00:41:16.236Z,7.50
2022-10-23T00:43:55.364Z,7.40
2022-10-23T00:46:22.282Z,7.40
2022-10-23T00:48:49.100Z,7.40
2022-10-23T00:51:16.668Z,7.40
2022-10-23T00:53:44.076Z,7.30
2022-10-23T00:56:11.252Z,7.30
2022-10-23T00:58:38.085Z,7.20
2022-10-23T01:01:16.124Z,7.20
2022-10-23T01:03:43.074Z,7.10
2022-10-23T01:06:14.511Z,7.00
2022-10-23T01:08:47.532Z,7.10
2022-10-23T01:11:26.585Z,7.00
2022-10-23T01:16:35.944Z,6.90
2022-10-23T01:19:09.845Z,6.80
2022-10-23T01:21:55.507Z,6.80
2022-10-23T01:24:28.395Z,6.70
2022-10-23T01:26:58.141Z,6.70
2022-10-23T01:29:24.908Z,6.80
2022-10-23T01:32:00.230Z,6.80
2022-10-23T01:34:32.598Z,6.70
2022-10-23T01:37:01.546Z,6.70
2022-10-23T01:39:31.713Z,6.70
2022-10-23T01:42:02.692Z,6.80
2022-10-23T01:44:32.619Z,6.80
2022-10-23T01:46:59.428Z,6.80
2022-10-23T01:49:26.337Z,6.80
2022-10-23T01:51:55.066Z,6.80
2022-10-23T01:54:24.608Z,6.80
2022-10-23T01:56:51.997Z,6.80
2022-10-23T01:59:22.525Z,6.70
2022-10-23T02:01:50.929Z,6.70
2022-10-23T02:04:38.155Z,6.70
2022-10-23T02:07:05.015Z,6.70
2022-10-23T02:09:32.592Z,6.60
2022-10-23T02:12:21.788Z,6.60
2022-10-23T02:14:58.448Z,6.60
2022-10-23T02:17:33.972Z,6.50
2022-10-23T02:20:08.801Z,6.40
2022-10-23T02:22:38.632Z,6.40
2022-10-23T02:25:11.077Z,6.50
2022-10-23T02:27:44.383Z,6.40
2022-10-23T02:30:12.502Z,6.40
2022-10-23T02:32:41.963Z,6.40
2022-10-23T02:35:09.274Z,6.40
2022-10-23T02:37:36.124Z,6.30
2022-10-23T02:40:04.078Z,6.30
2022-10-23T02:42:36.483Z,6.40
2022-10-23T02:45:06.324Z,6.30
2022-10-23T02:48:08.877Z,6.30
2022-10-23T02:50:57.989Z,6.30
2022-10-23T02:53:33.458Z,6.30
2022-10-23T02:56:00.284Z,6.30
2022-10-23T02:58:37.219Z,6.20
2022-10-23T03:01:17.479Z,6.10
2022-10-23T03:03:51.584Z,6.10
2022-10-23T03:06:18.661Z,6.10
2022-10-23T03:08:54.181Z,6.10
2022-10-23T03:11:21.088Z,6.00
2022-10-23T03:13:47.945Z,5.90
2022-10-23T03:16:14.778Z,5.90
2022-10-23T03:18:41.584Z,5.90
2022-10-23T03:21:08.704Z,5.80
2022-10-23T03:23:35.464Z,5.80
2022-10-23T03:26:02.337Z,5.70
2022-10-23T03:28:29.415Z,5.70
2022-10-23T03:30:56.522Z,5.70
2022-10-23T03:33:23.401Z,5.70
2022-10-23T03:35:50.245Z,5.70
2022-10-23T03:38:17.093Z,5.70
2022-10-23T03:40:43.864Z,5.70
2022-10-23T03:43:10.700Z,5.70
2022-10-23T03:45:38.823Z,5.60
2022-10-23T03:48:05.981Z,5.60
2022-10-23T03:50:32.995Z,5.60
2022-10-23T03:52:59.883Z,5.50
2022-10-23T03:55:27.272Z,5.60
2022-10-23T03:57:54.412Z,5.50
2022-10-23T04:00:21.337Z,5.50
2022-10-23T04:02:48.379Z,5.50
2022-10-23T04:05:15.397Z,5.50
2022-10-23T04:07:42.192Z,5.50
2022-10-23T04:10:09.287Z,5.60
2022-10-23T04:12:36.110Z,5.60
2022-10-23T04:15:02.920Z,5.50
2022-10-23T04:17:29.727Z,5.50
2022-10-23T04:19:56.634Z,5.40
2022-10-23T04:22:26.014Z,5.40
2022-10-23T04:24:55.199Z,5.40
2022-10-23T04:27:22.094Z,5.40
2022-10-23T04:29:49.465Z,5.30
2022-10-23T04:32:16.334Z,5.40
2022-10-23T04:34:43.193Z,5.30
2022-10-23T04:37:09.980Z,5.30
2022-10-23T04:39:36.797Z,5.30
2022-10-23T04:42:03.665Z,5.30
2022-10-23T04:44:30.544Z,5.20
2022-10-23T04:46:57.368Z,5.20
2022-10-23T04:49:24.321Z,5.20
2022-10-23T04:51:51.189Z,5.10
2022-10-23T04:54:18.031Z,5.10
2022-10-23T04:56:45.009Z,5.10
2022-10-23T04:59:11.930Z,5.00
2022-10-23T05:01:38.795Z,5.10
2022-10-23T05:04:05.712Z,5.00
2022-10-23T05:06:32.554Z,5.00
2022-10-23T05:08:59.484Z,5.00
2022-10-23T05:11:26.408Z,4.90
2022-10-23T05:13:53.204Z,4.90
2022-10-23T05:16:35.892Z,4.90
2022-10-23T05:19:03.526Z,4.80
2022-10-23T05:21:32.078Z,4.80
2022-10-23T05:26:26.939Z,4.70
2022-10-23T05:28:53.724Z,4.80
2022-10-23T05:31:21.384Z,4.70
2022-10-23T05:33:48.251Z,4.80
2022-10-23T05:36:15.444Z,4.70
2022-10-23T05:38:42.477Z,4.70
2022-10-23T05:41:09.325Z,4.70
2022-10-23T05:43:36.196Z,4.70
2022-10-23T05:46:06.397Z,4.70
2022-10-23T05:48:35.044Z,4.70
2022-10-23T05:51:09.587Z,4.70
2022-10-23T05:53:38.901Z,4.70
2022-10-23T05:56:09.015Z,4.70
2022-10-23T05:58:36.079Z,4.70
2022-10-23T06:01:07.338Z,4.70
2022-10-23T06:03:34.535Z,4.70
2022-10-23T06:06:01.362Z,4.70
2022-10-23T06:08:28.203Z,4.70
2022-10-23T06:10:55.043Z,4.60
2022-10-23T06:13:22.013Z,4.60
2022-10-23T06:15:48.892Z,4.60
2022-10-23T06:18:15.826Z,4.70
2022-10-23T06:20:42.676Z,4.70
2022-10-23T06:23:09.588Z,4.70
2022-10-23T06:25:36.577Z,4.70
2022-10-23T06:28:03.402Z,4.70
2022-10-23T06:30:30.612Z,4.70
2022-10-23T06:32:57.442Z,4.70
2022-10-23T06:35:24.279Z,4.70
2022-10-23T06:37:51.117Z,4.70
2022-10-23T06:40:18.184Z,4.70
2022-10-23T06:42:45.193Z,4.70
2022-10-23T06:45:12.239Z,4.70
2022-10-23T06:47:39.470Z,4.70
2022-10-23T06:50:07.927Z,4.70
2022-10-23T06:52:46.905Z,4.80
2022-10-23T06:55:14.727Z,4.80
2022-10-23T06:57:42.021Z,4.80
2022-10-23T07:00:09.331Z,4.80
2022-10-23T07:02:36.526Z,4.80
2022-10-23T07:05:03.587Z,4.70
2022-10-23T07:07:31.167Z,4.70
2022-10-23T07:09:57.956Z,4.70
2022-10-23T07:12:25.063Z,4.70
2022-10-23T07:14:51.999Z,4.90
2022-10-23T07:17:18.919Z,4.90
2022-10-23T07:19:46.614Z,4.90
2022-10-23T07:22:15.829Z,4.90
2022-10-23T07:24:43.050Z,5.00
2022-10-23T07:27:09.865Z,5.00
2022-10-23T07:29:37.174Z,5.00
2022-10-23T07:32:04.703Z,5.10
2022-10-23T07:34:32.242Z,5.10
2022-10-23T07:36:59.024Z,5.20
2022-10-23T07:39:26.060Z,5.30
2022-10-23T07:41:52.928Z,5.40
2022-10-23T07:44:21.969Z,5.40
2022-10-23T07:46:51.369Z,5.60
2022-10-23T07:49:18.239Z,5.60
2022-10-23T07:51:50.303Z,5.70
2022-10-23T07:54:18.557Z,5.80
2022-10-23T07:56:45.505Z,6.00
2022-10-23T07:59:13.192Z,6.00
2022-10-23T08:01:42.617Z,6.00
2022-10-23T08:04:10.539Z,6.00
2022-10-23T08:06:37.510Z,6.10
2022-10-23T08:09:06.547Z,6.10
2022-10-23T08:11:35.765Z,6.10
2022-10-23T08:14:04.754Z,6.20
2022-10-23T08:16:34.951Z,6.20
2022-10-23T08:19:02.261Z,6.30
2022-10-23T08:21:29.605Z,6.30
2022-10-23T08:23:58.011Z,6.30
2022-10-23T08:26:25.602Z,6.30
2022-10-23T08:28:53.180Z,6.40
2022-10-23T08:31:20.914Z,6.30
2022-10-23T08:36:19.739Z,6.40
2022-10-23T08:38:47.013Z,6.40
2022-10-23T08:41:19.191Z,6.40
2022-10-23T08:43:53.443Z,6.60
2022-10-23T08:46:25.376Z,6.60
2022-10-23T08:48:57.028Z,6.60
2022-10-23T08:51:39.704Z,6.60
2022-10-23T08:54:11.647Z,6.70
2022-10-23T08:56:40.595Z,6.70
2022-10-23T08:59:19.976Z,6.80
2022-10-23T09:01:48.205Z,6.80
2022-10-23T09:04:15.609Z,6.90
2022-10-23T09:07:00.641Z,7.00
2022-10-23T09:09:36.806Z,7.00
2022-10-23T09:12:07.263Z,7.10
2022-10-23T09:14:50.287Z,7.20
2022-10-23T09:17:24.058Z,7.20
2022-10-23T09:19:54.176Z,7.30
2022-10-23T09:22:21.088Z,7.20
2022-10-23T09:24:52.957Z,7.30
2022-10-23T09:27:21.058Z,7.30
2022-10-23T09:29:52.970Z,7.30
2022-10-23T09:32:20.731Z,7.30
2022-10-23T09:34:52.373Z,7.40
2022-10-23T09:37:26.639Z,7.40
2022-10-23T09:40:11.961Z,7.50
2022-10-23T09:42:38.827Z,7.50
2022-10-23T09:45:21.032Z,7.50
2022-10-23T09:47:47.971Z,7.70
2022-10-23T09:50:21.602Z,7.90
2022-10-23T09:52:53.132Z,7.90
2022-10-23T09:55:21.493Z,8.10
2022-10-23T09:57:48.428Z,8.10
2022-10-23T10:00:15.489Z,8.00
2022-10-23T10:02:44.123Z,8.10
2022-10-23T10:05:30.798Z,8.10
2022-10-23T10:08:03.704Z,8.10
2022-10-23T10:10:35.497Z,8.10
2022-10-23T10:13:05.545Z,8.20
2022-10-23T10:15:55.563Z,8.20
2022-10-23T10:18:27.244Z,8.20
2022-10-23T10:21:08.399Z,8.40
2022-10-23T10:23:41.534Z,8.40
2022-10-23T10:26:08.531Z,8.40
2022-10-23T10:28:44.003Z,8.50
2022-10-23T10:31:13.747Z,8.40
2022-10-23T10:33:40.503Z,8.50
2022-10-23T10:36:32.897Z,8.50
2022-10-23T10:39:01.038Z,8.50
2022-10-23T10:41:52.588Z,8.60
2022-10-23T10:44:39.859Z,8.60
2022-10-23T10:47:14.030Z,8.60
2022-10-23T10:49:50.578Z,8.80
2022-10-23T10:52:21.400Z,8.80
2022-10-23T10:55:14.805Z,8.90
2022-10-23T10:57:47.418Z,8.80
2022-10-23T11:00:19.569Z,8.90
2022-10-23T11:02:51.845Z,8.90
2022-10-23T11:05:27.843Z,8.90
2022-10-23T11:08:04.232Z,9.00
2022-10-23T11:10:31.149Z,9.00
2022-10-23T11:12:58.024Z,9.00
2022-10-23T11:15:28.236Z,9.00
2022-10-23T11:17:59.825Z,9.00
2022-10-23T11:20:50.935Z,9.00
2022-10-23T11:23:30.045Z,9.00
2022-10-23T11:26:06.037Z,9.00
2022-10-23T11:28:47.308Z,8.90
2022-10-23T11:31:32.786Z,9.00
2022-10-23T11:33:59.583Z,9.00
2022-10-23T11:36:45.254Z,9.00
2022-10-23T11:39:20.491Z,9.00
2022-10-23T11:41:52.368Z,9.00
2022-10-23T11:44:27.708Z,9.00
2022-10-23T11:47:01.686Z,9.00
2022-10-23T11:49:28.512Z,9.00
2022-10-23T11:52:02.423Z,9.00
2022-10-23T11:54:29.211Z,8.90
2022-10-23T11:57:10.373Z,9.00
2022-10-23T11:59:49.699Z,8.90
2022-10-23T12:02:39.550Z,8.90
2022-10-23T12:05:08.419Z,9.00
2022-10-23T12:07:39.816Z,9.10
2022-10-23T12:10:18.622Z,9.10
2022-10-23T12:12:55.249Z,9.10
2022-10-23T12:15:23.306Z,9.10
2022-10-23T12:17:51.000Z,9.10
2022-10-23T12:20:36.407Z,9.10
2022-10-23T12:23:14.092Z,9.20
2022-10-23T12:25:56.265Z,9.10
2022-10-23T12:28:29.184Z,9.10
2022-10-23T12:31:14.411Z,9.10
2022-10-23T12:33:53.368Z,9.10
2022-10-23T12:36:20.176Z,9.10
2022-10-23T12:38:47.596Z,9.10
2022-10-23T12:41:16.081Z,9.10
2022-10-23T12:43:44.260Z,9.10
2022-10-23T12:46:29.548Z,9.00
2022-10-23T12:48:56.959Z,9.10
2022-10-23T12:51:25.149Z,9.10
2022-10-23T12:53:51.897Z,9.20
2022-10-23T12:56:19.261Z,9.20
2022-10-23T12:58:49.432Z,9.10
2022-10-23T13:01:24.480Z,9.10
2022-10-23T13:03:52.455Z,9.10
2022-10-23T13:06:19.495Z,9.00
2022-10-23T13:08:47.194Z,9.00
2022-10-23T13:11:15.762Z,9.00
2022-10-23T13:13:42.646Z,9.00
2022-10-23T13:16:16.698Z,9.00
2022-10-23T13:18:43.779Z,8.90
2022-10-23T13:21:16.469Z,8.90
2022-10-23T13:23:43.628Z,9.00
2022-10-23T13:26:46.092Z,9.00
2022-10-23T13:29:21.602Z,9.00
2022-10-23T13:31:48.787Z,9.00
2022-10-23T13:34:22.339Z,9.00
2022-10-23T13:36:53.431Z,9.00
2022-10-23T13:39:24.825Z,9.00
2022-10-23T13:41:51.914Z,9.10
2022-10-23T13:44:20.665Z,9.10
2022-10-23T13:46:48.561Z,9.10
2022-10-23T13:49:15.824Z,9.10
2022-10-23T13:51:44.880Z,9.20
2022-10-23T13:54:19.344Z,9.20
2022-10-23T13:56:46.731Z,9.10
2022-10-23T13:59:14.477Z,9.10
2022-10-23T14:01:41.976Z,9.00
2022-10-23T14:04:08.898Z,9.00
2022-10-23T14:06:37.682Z,9.00
2022-10-23T14:09:05.821Z,8.90
2022-10-23T14:11:32.665Z,9.00
2022-10-23T14:14:00.109Z,9.00
2022-10-23T14:16:27.342Z,9.00
2022-10-23T14:18:54.312Z,9.00
2022-10-23T14:21:21.875Z,9.00
2022-10-23T14:23:49.158Z,9.00
2022-10-23T14:26:16.999Z,8.90
2022-10-23T14:28:43.874Z,8.90
2022-10-23T14:31:12.107Z,8.90
2022-10-23T14:33:39.049Z,9.00
2022-10-23T14:36:06.197Z,8.90
2022-10-23T14:38:33.238Z,9.00
2022-10-23T14:41:00.126Z,9.00
2022-10-23T14:43:27.052Z,9.00
2022-10-23T14:45:53.853Z,9.00
2022-10-23T14:48:20.672Z,9.00
2022-10-23T14:50:49.163Z,8.90
2022-10-23T14:53:16.345Z,9.00
2022-10-23T14:55:43.354Z,9.00
2022-10-23T14:58:10.129Z,9.00
2022-10-23T15:00:36.967Z,9.00
2022-10-23T15:03:03.857Z,9.00
2022-10-23T15:05:30.874Z,9.00
2022-10-23T15:07:59.099Z,8.90
2022-10-23T15:10:25.992Z,8.90
2022-10-23T15:12:52.960Z,8.90
2022-10-23T15:15:19.870Z,8.80
2022-10-23T15:17:46.754Z,8.80
2022-10-23T15:20:13.622Z,8.80
2022-10-23T15:22:40.850Z,8.80
2022-10-23T15:25:08.059Z,8.80
2022-10-23T15:27:35.201Z,8.80
2022-10-23T15:30:02.098Z,8.80
2022-10-23T15:32:28.981Z,8.70
2022-10-23T15:34:58.281Z,8.70
2022-10-23T15:37:25.135Z,8.80
2022-10-23T15:39:52.484Z,8.70
2022-10-23T15:42:19.502Z,8.70
2022-10-23T15:44:46.310Z,8.70
2022-10-23T15:47:13.142Z,8.70
2022-10-23T15:49:40.070Z,8.70
2022-10-23T15:54:40.631Z,8.70
2022-10-23T15:57:07.476Z,8.70
2022-10-23T15:59:34.322Z,8.70
2022-10-23T16:02:01.230Z,8.70
2022-10-23T16:04:28.835Z,8.70
2022-10-23T16:06:55.735Z,8.70
2022-10-23T16:09:22.713Z,8.60
2022-10-23T16:11:49.576Z,8.60
2022-10-23T16:14:17.494Z,8.60
2022-10-23T16:16:44.364Z,8.60
2022-10-23T16:19:11.743Z,8.60
2022-10-23T16:21:38.596Z,8.60
2022-10-23T16:24:06.826Z,8.60
2022-10-23T16:26:34.156Z,8.60
2022-10-23T16:29:02.298Z,8.60
2022-10-23T16:31:29.953Z,8.60
2022-10-23T16:36:29.863Z,8.60
2022-10-23T16:38:56.919Z,8.60
2022-10-23T16:41:23.731Z,8.60
2022-10-23T16:43:50.628Z,8.60
2022-10-23T16:46:19.024Z,8.60
2022-10-23T16:48:46.272Z,8.70
2022-10-23T16:51:14.531Z,8.70
2022-10-23T16:53:41.837Z,8.70
2022-10-23T16:56:09.534Z,8.70
2022-10-23T16:58:36.966Z,8.70
2022-10-23T17:01:07.307Z,8.70
2022-10-23T17:03:35.125Z,8.60
2022-10-23T17:06:04.153Z,8.60
2022-10-23T17:08:33.473Z,8.60
2022-10-23T17:11:05.268Z,8.60
2022-10-23T17:13:32.536Z,8.60
2022-10-23T17:16:04.215Z,8.60
2022-10-23T17:18:31.053Z,8.60
2022-10-23T17:20:57.998Z,8.60
2022-10-23T17:23:24.848Z,8.60
2022-10-23T17:25:51.779Z,8.60
2022-10-23T17:28:18.620Z,8.60
2022-10-23T17:30:45.511Z,8.60
2022-10-23T17:33:12.453Z,8.60
2022-10-23T17:35:39.608Z,8.50
2022-10-23T17:38:06.713Z,8.60
2022-10-23T17:40:33.756Z,8.50
2022-10-23T17:43:00.954Z,8.60
2022-10-23T17:45:27.832Z,8.50
2022-10-23T17:47:54.760Z,8.50
2022-10-23T17:50:21.627Z,8.50
2022-10-23T17:52:48.850Z,8.50
2022-10-23T17:55:15.774Z,8.50
2022-10-23T17:57:42.787Z,8.50
2022-10-23T18:00:10.041Z,8.50
2022-10-23T18:02:36.952Z,8.50
2022-10-23T18:05:03.966Z,8.50
2022-10-23T18:07:30.904Z,8.40
2022-10-23T18:09:57.784Z,8.50
2022-10-23T18:12:24.714Z,8.40
2022-10-23T18:14:51.640Z,8.40
2022-10-23T18:17:18.420Z,8.40
2022-10-23T18:19:45.406Z,8.50
2022-10-23T18:22:12.297Z,8.50
2022-10-23T18:24:39.774Z,8.50
2022-10-23T18:27:07.263Z,8.50
2022-10-23T18:29:34.224Z,8.50
2022-10-23T18:32:01.089Z,8.50
2022-10-23T18:34:27.986Z,8.50
2022-10-23T18:36:55.257Z,8.50
2022-10-23T18:39:23.558Z,8.50
2022-10-23T18:41:52.082Z,8.50
2022-10-23T18:44:20.938Z,8.50
2022-10-23T18:46:48.159Z,8.50
2022-10-23T18:49:16.156Z,8.60
2022-10-23T18:51:43.216Z,8.50
2022-10-23T18:54:14.253Z,8.50
2022-10-23T18:56:41.200Z,8.50
2022-10-23T18:59:10.799Z,8.50
2022-10-23T19:01:37.850Z,8.50
2022-10-23T19:04:05.192Z,8.50
2022-10-23T19:06:32.284Z,8.50
2022-10-23T19:08:59.360Z,8.50
2022-10-23T19:11:26.885Z,8.50
2022-10-23T19:13:54.072Z,8.50
2022-10-23T19:16:33.249Z,8.50
2022-10-23T19:19:12.240Z,8.50
2022-10-23T19:21:40.645Z,8.50
2022-10-23T19:24:09.329Z,8.50
2022-10-23T19:26:37.539Z,8.50
2022-10-23T19:29:06.276Z,8.50
2022-10-23T19:31:33.189Z,8.50
2022-10-23T19:34:00.089Z,8.50
2022-10-23T19:36:27.093Z,8.50
2022-10-23T19:38:54.012Z,8.50
2022-10-23T19:41:20.875Z,8.50
2022-10-23T19:43:47.647Z,8.50
2022-10-23T19:46:14.521Z,8.50
2022-10-23T19:48:45.836Z,8.50
2022-10-23T19:51:15.502Z,8.50
2022-10-23T19:53:42.879Z,8.50
2022-10-23T19:56:10.771Z,8.50
2022-10-23T19:58:37.650Z,8.50
2022-10-23T20:01:12.135Z,8.60
2022-10-23T20:03:39.803Z,8.60
2022-10-23T20:06:10.831Z,8.60
2022-10-23T20:08:37.909Z,8.60
2022-10-23T20:11:05.068Z,8.50
2022-10-23T20:13:32.282Z,8.50
2022-10-23T20:15:59.110Z,8.50
2022-10-23T20:18:26.207Z,8.50
2022-10-23T20:20:53.473Z,8.60
2022-10-23T20:23:20.392Z,8.60
2022-10-23T20:25:47.285Z,8.60
2022-10-23T20:28:15.232Z,8.60
2022-10-23T20:30:44.223Z,8.60
2022-10-23T20:33:11.634Z,8.60
2022-10-23T20:35:42.291Z,8.60
2022-10-23T20:38:09.567Z,8.60
2022-10-23T20:40:36.442Z,8.60
2022-10-23T20:43:03.684Z,8.60
2022-10-23T20:45:30.538Z,8.60
2022-10-23T20:47:57.365Z,8.60
2022-10-23T20:50:24.294Z,8.70
2022-10-23T20:52:51.351Z,8.70
2022-10-23T20:55:18.400Z,8.70
2022-10-23T20:57:45.818Z,8.70
2022-10-23T21:00:13.102Z,8.60
2022-10-23T21:02:40.047Z,8.60
2022-10-23T21:05:07.266Z,8.60
2022-10-23T21:07:34.288Z,8.60
2022-10-23T21:10:02.225Z,8.60
2022-10-23T21:12:29.055Z,8.70
2022-10-23T21:14:55.891Z,8.70
2022-10-23T21:17:22.771Z,8.70
2022-10-23T21:19:49.764Z,8.70
2022-10-23T21:22:16.631Z,8.80
2022-10-23T21:24:43.495Z,8.80
2022-10-23T21:27:10.398Z,8.70
2022-10-23T21:29:37.201Z,8.70
2022-10-23T21:32:04.281Z,8.70
2022-10-23T21:34:31.272Z,8.70
2022-10-23T21:37:14.725Z,8.80
2022-10-23T21:39:42.678Z,8.80
2022-10-23T21:42:09.891Z,8.80
2022-10-23T21:44:36.769Z,8.70
2022-10-23T21:47:03.649Z,8.70
2022-10-23T21:49:30.640Z,8.70
2022-10-23T21:51:57.568Z,8.70
2022-10-23T21:54:24.517Z,8.70
2022-10-23T21:56:53.835Z,8.70
2022-10-23T21:59:22.086Z,8.70
2022-10-23T22:01:49.210Z,8.80
2022-10-23T22:04:20.012Z,8.80
2022-10-23T22:06:47.905Z,8.90
2022-10-23T22:09:16.059Z,8.90
2022-10-23T22:11:43.180Z,8.90
2022-10-23T22:14:10.106Z,8.90
2022-10-23T22:16:37.043Z,8.90
2022-10-23T22:19:03.909Z,8.90
2022-10-23T22:21:31.049Z,8.90
2022-10-23T22:23:58.719Z,8.90
2022-10-23T22:26:27.610Z,8.90
2022-10-23T22:28:55.478Z,9.00
2022-10-23T22:31:24.526Z,9.00
2022-10-23T22:33:52.301Z,9.00
2022-10-23T22:36:19.568Z,8.90
2022-10-23T22:38:46.690Z,8.90
2022-10-23T22:41:13.872Z,9.00
2022-10-23T22:43:40.850Z,9.00
2022-10-23T22:46:09.135Z,9.00
2022-10-23T22:48:36.263Z,9.00
2022-10-23T22:51:03.727Z,9.00
2022-10-23T22:53:31.333Z,9.00
2022-10-23T22:55:58.284Z,9.00
2022-10-23T22:58:25.668Z,9.00
2022-10-23T23:00:53.352Z,9.00
2022-10-23T23:03:20.305Z,9.00
2022-10-23T23:05:47.999Z,9.00
2022-10-23T23:08:15.079Z,8.90
2022-10-23T23:10:42.026Z,8.90
2022-10-23T23:13:08.971Z,9.00
2022-10-23T23:15:39.625Z,8.90
2022-10-23T23:18:06.915Z,8.90
2022-10-23T23:20:34.053Z,8.90
2022-10-23T23:23:00.983Z,8.90
2022-10-23T23:25:27.824Z,8.90
2022-10-23T23:27:54.854Z,8.90
2022-10-23T23:30:21.879Z,8.90
2022-10-23T23:32:48.957Z,8.90
2022-10-23T23:35:15.872Z,8.90
2022-10-23T23:37:42.833Z,9.00
2022-10-23T23:40:10.195Z,9.00
2022-10-23T23:42:37.353Z,9.00
2022-10-23T23:45:14.198Z,9.00
2022-10-23T23:47:42.251Z,8.90
2022-10-23T23:50:09.940Z,8.90
2022-10-23T23:52:36.801Z,8.90
2022-10-23T23:55:03.739Z,8.90
2022-10-23T23:57:30.564Z,9.00
2022-10-23T23:59:57.536Z,9.00
